Time;durP1;ratioP1;P1;durP2;ratioP2;P2;SDS_P1;SDS_P2;PMS_P1;PMS_P2;Temp;Humidity;BMP_temperature;BMP_pressure;BME280_temperature;BME280_humidity;BME280_pressure;Samples;Min_cycle;Max_cycle;Signal;HPM_P1;HPM_P2
2022/07/04 00:00:21;;;;;;;4.70;1.45;;;23.70;47.00;;;;;;7364882;19;20070;-74
2022/07/04 00:02:50;;;;;;;5.93;1.50;;;23.70;47.20;;;;;;7388584;19;20022;-74
2022/07/04 00:05:19;;;;;;;4.85;1.40;;;23.60;47.20;;;;;;7366270;19;20031;-74
2022/07/04 00:07:50;;;;;;;1.88;1.27;;;23.50;47.40;;;;;;7367509;19;20055;-74
2022/07/04 00:10:23;;;;;;;2.75;1.33;;;23.50;47.50;;;;;;7366615;19;20014;-74
2022/07/04 00:12:52;;;;;;;3.33;1.52;;;23.50;47.70;;;;;;7367432;19;20075;-74
2022/07/04 00:15:21;;;;;;;4.30;1.55;;;23.40;48.40;;;;;;7366093;19;20025;-74
2022/07/04 00:17:49;;;;;;;4.47;1.38;;;23.40;47.80;;;;;;7386839;19;20026;-74
2022/07/04 00:20:18;;;;;;;2.00;1.30;;;23.50;47.90;;;;;;7363730;19;20011;-74
2022/07/04 00:22:48;;;;;;;3.92;1.50;;;23.50;47.90;;;;;;7366671;19;20185;-74
2022/07/04 00:25:16;;;;;;;3.65;1.52;;;23.40;47.90;;;;;;7366710;19;20399;-74
2022/07/04 00:27:48;;;;;;;4.45;1.40;;;23.40;47.90;;;;;;7366652;19;20049;-74
2022/07/04 00:30:17;;;;;;;3.45;1.35;;;23.40;47.90;;;;;;7367551;19;20022;-74
2022/07/04 00:35:56;;;;;;;1.42;1.08;;;23.40;47.80;;;;;;7364075;19;20082;-74
2022/07/04 00:38:25;;;;;;;4.88;1.50;;;23.40;47.80;;;;;;7366364;19;20028;-74
2022/07/04 00:40:54;;;;;;;6.20;1.48;;;23.40;47.80;;;;;;7364960;19;20044;-74
2022/07/04 00:43:29;;;;;;;2.92;1.27;;;23.40;47.80;;;;;;7366620;19;20025;-74
2022/07/04 00:45:58;;;;;;;3.72;1.40;;;23.40;47.70;;;;;;7367195;19;20031;-74
2022/07/04 00:48:27;;;;;;;4.43;1.67;;;23.40;47.70;;;;;;7365029;19;20082;-75
2022/07/04 00:50:56;;;;;;;3.70;1.40;;;23.30;47.70;;;;;;7385156;19;20439;-74
2022/07/04 00:53:25;;;;;;;4.78;1.33;;;23.30;47.70;;;;;;7366059;19;20086;-74
2022/07/04 00:55:55;;;;;;;2.08;1.02;;;23.30;47.90;;;;;;7364847;19;20015;-74
2022/07/04 00:58:25;;;;;;;4.88;1.50;;;23.30;48.00;;;;;;7366709;19;20021;-74
2022/07/04 01:00:56;;;;;;;4.85;1.30;;;23.20;48.10;;;;;;7364592;19;20740;-74
2022/07/04 01:03:26;;;;;;;3.50;1.20;;;23.20;48.10;;;;;;7364361;19;20451;-74
2022/07/04 01:05:55;;;;;;;5.10;1.10;;;23.10;48.40;;;;;;7385228;19;20460;-74
2022/07/04 01:08:24;;;;;;;3.88;1.10;;;23.10;48.60;;;;;;7364752;19;20017;-74
2022/07/04 01:10:52;;;;;;;5.70;1.48;;;23.10;48.40;;;;;;7364287;19;20014;-74
2022/07/04 01:13:25;;;;;;;3.00;1.33;;;23.10;48.30;;;;;;7369872;19;20010;-74
2022/07/04 01:15:56;;;;;;;4.82;1.45;;;23.10;48.20;;;;;;7373866;19;20053;-74
2022/07/04 01:18:25;;;;;;;3.17;1.38;;;23.10;48.30;;;;;;7371464;19;20049;-74
2022/07/04 01:20:56;;;;;;;2.97;1.35;;;23.00;48.40;;;;;;7394225;19;20022;-76
2022/07/04 01:23:25;;;;;;;5.45;1.17;;;23.00;48.60;;;;;;7371397;19;20082;-75
2022/07/04 01:25:54;;;;;;;4.18;1.20;;;23.00;49.30;;;;;;7372997;19;20022;-75
2022/07/04 01:28:24;;;;;;;2.50;1.23;;;23.00;48.60;;;;;;7371862;19;20081;-75
2022/07/04 01:30:53;;;;;;;4.28;1.40;;;23.00;48.60;;;;;;7371715;19;20086;-74
2022/07/04 01:33:22;;;;;;;5.22;1.67;;;22.90;48.60;;;;;;7369682;19;20006;-75
2022/07/04 01:35:50;;;;;;;5.38;1.10;;;22.90;48.80;;;;;;7391296;19;20070;-74
2022/07/04 01:38:22;;;;;;;3.05;1.40;;;22.80;48.90;;;;;;7371518;19;20014;-74
2022/07/04 01:40:51;;;;;;;4.80;1.77;;;22.70;49.10;;;;;;7371367;19;20053;-75
2022/07/04 01:43:20;;;;;;;3.47;1.30;;;22.60;49.30;;;;;;7371036;19;20648;-75
2022/07/04 01:45:48;;;;;;;3.63;1.35;;;22.50;49.60;;;;;;7370990;19;20789;-75
2022/07/04 01:48:17;;;;;;;4.68;1.30;;;22.50;49.70;;;;;;7368820;19;20496;-75
2022/07/04 01:50:46;;;;;;;3.45;1.17;;;22.50;49.80;;;;;;7390070;19;20046;-75
2022/07/04 01:53:15;;;;;;;2.65;1.17;;;22.50;49.70;;;;;;7371431;19;20031;-75
2022/07/04 01:55:46;;;;;;;4.50;1.40;;;22.50;49.40;;;;;;7371177;19;20015;-74
2022/07/04 01:58:14;;;;;;;;;;;22.40;49.40;;;;;;7372505;19;20424;-74
2022/07/04 02:03:24;;;;;;;4.32;1.63;;;22.30;49.60;;;;;;7373038;19;20562;-74
2022/07/04 02:05:53;;;;;;;6.43;1.65;;;22.30;49.60;;;;;;7392267;19;20743;-74
2022/07/04 02:08:21;;;;;;;3.28;1.30;;;22.30;49.70;;;;;;7369227;19;20014;-74
2022/07/04 02:10:53;;;;;;;5.15;1.77;;;22.30;49.90;;;;;;7370130;19;20011;-74
2022/07/04 02:13:19;;;;;;;;;;;22.20;50.10;;;;;;7371127;19;20019;-74
2022/07/04 02:15:47;;;;;;;5.57;2.20;;;22.10;50.20;;;;;;7373211;19;19930;-74
2022/07/04 02:18:16;;;;;;;3.00;1.63;;;22.00;50.30;;;;;;7368149;19;20019;-74
2022/07/04 02:20:45;;;;;;;4.32;1.67;;;21.90;50.70;;;;;;7390262;19;20014;-74
2022/07/04 02:23:14;;;;;;;4.47;1.85;;;21.90;50.80;;;;;;7370540;19;20656;-74
2022/07/04 02:25:42;;;;;;;7.70;3.20;;;21.80;50.90;;;;;;7370463;19;20031;-74
2022/07/04 02:28:14;;;;;;;5.35;1.50;;;21.80;50.90;;;;;;7369356;19;20505;-74
2022/07/04 02:30:42;;;;;;;4.47;1.45;;;21.80;51.00;;;;;;7370515;19;20022;-74
2022/07/04 02:33:11;;;;;;;8.00;1.63;;;21.70;50.90;;;;;;7370706;19;20078;-74
2022/07/04 02:35:40;;;;;;;3.42;1.30;;;21.70;51.00;;;;;;7388596;19;20510;-74
2022/07/04 02:38:08;;;;;;;3.58;1.40;;;21.70;51.00;;;;;;7370244;19;20021;-74
2022/07/04 02:40:37;;;;;;;3.38;1.58;;;21.70;51.20;;;;;;7370770;19;20014;-74
2022/07/04 02:43:06;;;;;;;3.55;1.88;;;21.70;51.10;;;;;;7368890;19;20014;-74
2022/07/04 02:45:37;;;;;;;3.33;1.50;;;21.70;51.00;;;;;;7370298;19;20082;-74
2022/07/04 02:48:06;;;;;;;;;;;21.80;51.10;;;;;;7368783;19;20782;-75
2022/07/04 02:50:34;;;;;;;3.40;1.10;;;21.80;50.90;;;;;;7390966;19;20324;-74
2022/07/04 02:53:03;;;;;;;3.50;1.42;;;21.70;50.60;;;;;;7368341;19;20443;-74
2022/07/04 02:55:32;;;;;;;4.20;1.42;;;21.80;50.60;;;;;;7369922;19;20561;-74
2022/07/04 02:58:01;;;;;;;4.35;1.85;;;21.80;50.40;;;;;;7370188;19;20072;-74
2022/07/04 03:00:30;;;;;;;3.33;1.10;;;21.70;50.30;;;;;;7367754;19;20445;-74
2022/07/04 03:03:01;;;;;;;3.28;1.35;;;21.70;50.30;;;;;;7389407;19;20439;-74
2022/07/04 03:05:32;;;;;;;;;;;21.60;50.20;;;;;;7368805;19;20389;-74
2022/07/04 03:08:01;;;;;;;3.78;1.65;;;21.70;50.40;;;;;;7369208;19;19935;-74
2022/07/04 03:10:29;;;;;;;3.83;1.42;;;21.60;50.40;;;;;;7370486;19;20018;-74
2022/07/04 03:12:58;;;;;;;3.97;1.60;;;21.60;50.40;;;;;;7369435;19;20086;-74
2022/07/04 03:15:27;;;;;;;3.75;1.10;;;21.60;51.10;;;;;;7369302;19;20025;-74
2022/07/04 03:17:56;;;;;;;4.03;1.33;;;21.50;50.70;;;;;;7391509;19;20018;-74
2022/07/04 03:20:27;;;;;;;3.10;1.13;;;21.50;50.60;;;;;;7368495;19;20321;-74
2022/07/04 03:22:57;;;;;;;;;;;21.40;50.50;;;;;;7367422;19;20007;-74
2022/07/04 03:25:26;;;;;;;3.80;1.40;;;21.40;50.60;;;;;;7369169;19;19923;-74
2022/07/04 03:27:55;;;;;;;2.85;1.40;;;21.30;50.60;;;;;;7368561;19;20022;-74
2022/07/04 03:30:23;;;;;;;5.07;1.30;;;21.30;50.60;;;;;;7368938;19;20040;-74
2022/07/04 03:32:52;;;;;;;6.07;1.42;;;21.30;50.50;;;;;;7387659;19;20443;-74
2022/07/04 03:35:21;;;;;;;5.28;1.70;;;21.30;50.60;;;;;;7366662;19;20484;-74
2022/07/04 03:37:53;;;;;;;2.92;1.42;;;21.10;50.80;;;;;;7367625;19;20046;-74
2022/07/04 03:40:22;;;;;;;3.53;1.42;;;21.00;51.30;;;;;;7368114;19;20021;-74
2022/07/04 03:42:51;;;;;;;5.30;1.30;;;20.90;51.70;;;;;;7366374;19;20468;-74
2022/07/04 03:45:20;;;;;;;2.90;1.20;;;20.80;51.80;;;;;;7367509;19;20022;-74
2022/07/04 03:47:49;;;;;;;3.92;1.20;;;20.80;51.90;;;;;;7388680;19;20035;-74
2022/07/04 03:50:18;;;;;;;3.25;1.23;;;20.80;51.90;;;;;;7367791;19;20055;-74
2022/07/04 03:52:46;;;;;;;3.22;1.20;;;20.80;51.60;;;;;;7366848;19;20321;-74
2022/07/04 03:55:18;;;;;;;5.32;1.60;;;20.90;51.40;;;;;;7366320;19;20110;-74
2022/07/04 03:57:46;;;;;;;;;;;20.90;52.00;;;;;;7367031;19;20073;-74
2022/07/04 04:00:16;;;;;;;3.00;1.10;;;21.00;51.40;;;;;;7366937;19;19921;-74
2022/07/04 04:02:45;;;;;;;4.93;1.23;;;21.00;51.30;;;;;;7387244;19;20031;-73
2022/07/04 04:05:26;;;;;;;3.55;1.40;;;20.90;51.40;;;;;;7367659;19;20082;-74
2022/07/04 04:07:57;;;;;;;6.88;1.52;;;20.80;51.50;;;;;;7366622;19;20463;-74
2022/07/04 04:10:30;;;;;;;2.70;1.53;;;20.80;51.70;;;;;;7369012;19;20101;-74
2022/07/04 04:13:00;;;;;;;4.50;1.48;;;20.70;52.00;;;;;;7366189;19;20088;-74
2022/07/04 04:15:29;;;;;;;6.47;1.45;;;20.70;52.20;;;;;;7367961;19;20021;-74
2022/07/04 04:17:57;;;;;;;4.10;1.73;;;20.60;52.50;;;;;;7388001;19;20014;-74
2022/07/04 04:20:26;;;;;;;2.80;1.58;;;20.50;52.60;;;;;;7367411;19;20021;-74
2022/07/04 04:22:55;;;;;;;2.78;1.42;;;20.50;52.90;;;;;;7365727;19;20046;-74
2022/07/04 04:25:24;;;;;;;3.95;1.73;;;20.40;52.90;;;;;;7365878;19;20442;-74
2022/07/04 04:27:58;;;;;;;5.40;1.55;;;20.40;53.10;;;;;;7366739;19;20753;-74
2022/07/04 04:30:26;;;;;;;1.98;1.27;;;20.40;53.90;;;;;;7366751;19;20097;-74
2022/07/04 04:32:55;;;;;;;5.47;1.70;;;20.30;53.20;;;;;;7385970;19;20022;-74
2022/07/04 04:35:24;;;;;;;5.57;1.77;;;20.40;53.10;;;;;;7364758;19;20091;-74
2022/07/04 04:37:53;;;;;;;6.50;2.67;;;20.50;53.10;;;;;;7364900;19;20014;-74
2022/07/04 04:40:22;;;;;;;2.65;1.20;;;20.50;53.00;;;;;;7366974;19;20014;-74
2022/07/04 04:42:50;;;;;;;7.95;2.28;;;20.50;52.80;;;;;;7363522;19;20028;-74
2022/07/04 04:45:22;;;;;;;3.92;1.63;;;20.60;52.90;;;;;;7364894;19;20113;-74
2022/07/04 04:47:53;;;;;;;5.65;1.60;;;20.60;52.90;;;;;;7391179;19;20002;-74
2022/07/04 04:50:22;;;;;;;2.30;1.55;;;20.60;53.00;;;;;;7372330;19;20010;-74
2022/07/04 04:52:50;;;;;;;3.80;1.60;;;20.60;52.90;;;;;;7371383;19;20042;-75
2022/07/04 04:55:21;;;;;;;3.88;1.50;;;20.70;53.00;;;;;;7373653;19;20022;-75
2022/07/04 04:57:50;;;;;;;5.55;1.98;;;20.80;52.70;;;;;;7373493;19;20025;-75
2022/07/04 05:00:22;;;;;;;5.57;1.40;;;20.80;52.70;;;;;;7373517;19;20022;-74
2022/07/04 05:02:51;;;;;;;5.32;1.58;;;20.90;52.60;;;;;;7394888;19;20038;-74
2022/07/04 05:05:19;;;;;;;2.90;1.63;;;20.90;52.60;;;;;;7373410;19;20090;-74
2022/07/04 05:07:48;;;;;;;5.78;1.60;;;20.90;52.70;;;;;;7371706;19;20018;-74
2022/07/04 05:10:18;;;;;;;2.33;1.50;;;20.80;52.70;;;;;;7373538;19;20021;-74
2022/07/04 05:12:47;;;;;;;2.53;1.45;;;20.90;52.90;;;;;;7370309;19;20015;-74
2022/07/04 05:15:15;;;;;;;5.70;1.90;;;20.90;52.90;;;;;;7372856;19;20071;-74
2022/07/04 05:17:47;;;;;;;6.07;1.77;;;20.90;52.80;;;;;;7394430;19;20534;-74
2022/07/04 05:20:16;;;;;;;8.05;1.85;;;20.90;52.90;;;;;;7371199;19;20028;-75
2022/07/04 05:22:45;;;;;;;7.30;2.00;;;20.80;53.10;;;;;;7372432;19;20086;-74
2022/07/04 05:25:13;;;;;;;4.90;1.75;;;20.80;53.20;;;;;;7372011;19;20070;-74
2022/07/04 05:27:42;;;;;;;3.42;1.70;;;20.70;53.40;;;;;;7371799;19;20010;-74
2022/07/04 05:30:13;;;;;;;3.05;1.70;;;20.70;53.60;;;;;;7372709;19;20029;-74
2022/07/04 05:32:42;;;;;;;3.20;1.30;;;20.80;53.60;;;;;;7391557;19;20022;-74
2022/07/04 05:35:14;;;;;;;5.45;1.65;;;20.80;53.60;;;;;;7372497;19;20071;-74
2022/07/04 05:37:43;;;;;;;4.90;1.50;;;20.90;53.50;;;;;;7372428;19;20107;-74
2022/07/04 05:40:16;;;;;;;3.67;1.67;;;21.00;53.50;;;;;;7371788;19;20048;-74
2022/07/04 05:42:45;;;;;;;3.80;1.35;;;21.00;53.50;;;;;;7373076;19;20014;-74
2022/07/04 05:45:14;;;;;;;8.82;1.75;;;21.10;53.50;;;;;;7371252;19;20090;-75
2022/07/04 05:47:43;;;;;;;3.28;1.60;;;21.10;53.60;;;;;;7393933;19;20323;-74
2022/07/04 05:50:15;;;;;;;4.53;1.70;;;21.20;53.80;;;;;;7370615;19;20007;-74
2022/07/04 05:52:43;;;;;;;;;;;21.20;53.70;;;;;;7371344;19;20010;-74
2022/07/04 05:55:12;;;;;;;4.30;1.40;;;21.30;53.70;;;;;;7371001;19;20370;-75
2022/07/04 05:57:41;;;;;;;6.50;1.42;;;21.30;53.50;;;;;;7371251;19;20116;-75
2022/07/04 06:00:11;;;;;;;4.38;1.58;;;21.40;53.70;;;;;;7371393;19;20086;-75
2022/07/04 06:02:41;;;;;;;5.15;1.60;;;21.40;53.80;;;;;;7394503;19;20014;-74
2022/07/04 06:05:11;;;;;;;3.47;1.40;;;21.40;53.90;;;;;;7370589;19;20109;-75
2022/07/04 06:07:42;;;;;;;5.25;1.45;;;21.50;54.00;;;;;;7371581;19;20023;-74
2022/07/04 06:10:11;;;;;;;;;;;21.60;54.00;;;;;;7370908;19;20010;-74
2022/07/04 06:12:40;;;;;;;2.97;1.65;;;21.70;54.00;;;;;;7370908;19;19921;-74
2022/07/04 06:15:09;;;;;;;6.32;1.42;;;21.70;53.80;;;;;;7371726;19;20081;-74
2022/07/04 06:17:38;;;;;;;4.90;1.58;;;21.80;53.80;;;;;;7391827;19;20445;-74
2022/07/04 06:20:09;;;;;;;4.70;1.33;;;21.80;53.80;;;;;;7370560;19;20020;-74
2022/07/04 06:22:47;;;;;;;6.82;1.42;;;21.90;53.80;;;;;;7370563;19;20106;-74
2022/07/04 06:25:17;;;;;;;5.03;1.48;;;21.90;53.80;;;;;;7370626;19;20007;-74
2022/07/04 06:27:47;;;;;;;2.80;1.30;;;22.00;53.80;;;;;;7369370;19;20455;-74
2022/07/04 06:30:17;;;;;;;3.25;1.27;;;22.10;53.70;;;;;;7370270;19;20029;-74
2022/07/04 06:32:48;;;;;;;2.35;1.23;;;22.10;53.40;;;;;;7389078;19;20014;-74
2022/07/04 06:38:03;;;;;;;2.55;1.48;;;22.20;52.90;;;;;;7370839;19;20018;-74
2022/07/04 06:40:31;;;;;;;;;;;22.30;52.80;;;;;;7370781;19;20038;-74
2022/07/04 06:43:00;;;;;;;7.10;1.55;;;22.40;52.50;;;;;;7369385;19;19939;-74
2022/07/04 06:45:29;;;;;;;3.22;1.42;;;22.40;52.60;;;;;;7370068;19;20089;-74
2022/07/04 06:47:58;;;;;;;4.35;1.50;;;22.40;52.60;;;;;;7391404;19;20125;-74
2022/07/04 06:50:26;;;;;;;4.78;1.67;;;22.40;52.50;;;;;;7369252;19;20049;-76
2022/07/04 06:52:55;;;;;;;4.78;1.63;;;22.30;51.60;;;;;;7367699;19;20029;-74
2022/07/04 06:55:28;;;;;;;3.50;1.50;;;22.20;51.70;;;;;;7368295;19;20483;-74
2022/07/04 06:58:00;;;;;;;3.63;1.30;;;22.20;52.00;;;;;;7366134;19;20011;-73
2022/07/04 07:00:30;;;;;;;7.82;2.08;;;22.20;51.80;;;;;;7368023;19;20010;-74
2022/07/04 07:03:11;;;;;;;3.85;1.65;;;22.20;51.60;;;;;;7388510;19;20027;-73
2022/07/04 07:05:45;;;;;;;7.32;1.38;;;22.20;51.70;;;;;;7366357;19;20022;-74
2022/07/04 07:08:18;;;;;;;3.15;1.20;;;22.30;51.70;;;;;;7366600;19;20059;-74
2022/07/04 07:11:12;;;;;;;3.25;1.27;;;22.40;51.70;;;;;;7347943;19;20104;-75
2022/07/04 07:13:43;;;;;;;5.22;2.05;;;22.50;51.30;;;;;;7367527;19;20021;-75
2022/07/04 07:16:15;;;;;;;;;;;22.50;51.10;;;;;;7367770;19;20014;-75
2022/07/04 07:19:02;;;;;;;3.60;1.33;;;22.50;50.80;;;;;;7359553;19;20232;-75
2022/07/04 07:21:38;;;;;;;7.47;1.50;;;22.40;50.90;;;;;;7344151;19;20473;-75
2022/07/04 07:24:12;;;;;;;3.70;1.48;;;22.50;50.90;;;;;;7364608;19;20031;-76
2022/07/04 07:34:17;;;;;;;4.25;1.30;;;22.50;50.70;;;;;;7374384;19;20014;-75
2022/07/04 07:37:41;;;;;;;6.30;1.17;;;22.60;50.80;;;;;;7374563;19;20299;-75
2022/07/04 07:47:35;;;;;;;3.65;1.50;;;22.50;49.90;;;;;;7339450;19;20014;-76
2022/07/04 07:57:42;;;;;;;5.72;1.23;;;22.70;49.70;;;;;;7372662;19;20010;-75
2022/07/04 08:27:57;;;;;;;1.80;0.80;;;22.70;47.40;;;;;;7391084;19;20010;-75
2022/07/04 08:30:33;;;;;;;1.98;1.00;;;22.80;47.70;;;;;;7247209;19;2004937;-75
2022/07/04 08:33:09;;;;;;;5.25;1.30;;;22.90;47.60;;;;;;7383268;19;20097;-75
2022/07/04 08:38:48;;;;;;;3.08;0.90;;;22.90;46.90;;;;;;7358096;19;20409;-75
2022/07/04 08:41:22;;;;;;;3.30;0.88;;;22.90;47.20;;;;;;7314150;19;20041;-75
2022/07/04 08:43:55;;;;;;;3.05;1.00;;;23.00;47.20;;;;;;7362168;19;20078;-75
2022/07/04 08:46:30;;;;;;;2.95;0.90;;;23.10;46.80;;;;;;7361826;19;20018;-75
2022/07/04 08:49:17;;;;;;;3.53;1.00;;;23.10;46.70;;;;;;7362874;19;20010;-75
2022/07/04 08:51:58;;;;;;;1.35;0.77;;;22.90;47.20;;;;;;7360705;19;20484;-75
2022/07/04 09:00:21;;;;;;;2.58;1.00;;;23.10;46.60;;;;;;7365308;19;20011;-76
2022/07/04 09:03:15;;;;;;;3.05;0.95;;;23.10;47.00;;;;;;7385191;19;20309;-75
2022/07/04 09:06:00;;;;;;;2.25;0.93;;;23.10;46.80;;;;;;7365503;19;20392;-75
2022/07/04 09:08:39;;;;;;;4.32;1.38;;;23.20;46.70;;;;;;7364586;19;20018;-75
2022/07/04 09:11:12;;;;;;;1.92;0.93;;;23.20;46.60;;;;;;7363849;19;20025;-75
2022/07/04 09:13:44;;;;;;;4.22;1.25;;;23.10;44.90;;;;;;7364123;19;20025;-75
2022/07/04 09:16:16;;;;;;;2.30;1.00;;;23.10;45.10;;;;;;7362541;19;20011;-75
2022/07/04 09:18:57;;;;;;;3.53;0.90;;;23.20;45.40;;;;;;7362674;19;20014;-75
2022/07/04 09:21:50;;;;;;;4.18;0.90;;;23.20;45.20;;;;;;7365935;19;20004;-75
2022/07/04 09:24:41;;;;;;;3.40;0.90;;;23.10;44.80;;;;;;7363006;19;20014;-76
2022/07/04 09:27:12;;;;;;;3.30;0.80;;;22.90;44.90;;;;;;7362549;19;20025;-75
2022/07/04 09:29:57;;;;;;;1.43;0.87;;;23.00;45.00;;;;;;7383926;19;20022;-75
2022/07/04 09:32:45;;;;;;;1.30;0.70;;;23.00;45.50;;;;;;7361142;19;20019;-75
2022/07/04 09:35:47;;;;;;;1.63;0.98;;;23.00;44.60;;;;;;7369186;19;20014;-75
2022/07/04 09:38:31;;;;;;;2.00;0.70;;;22.90;44.90;;;;;;7371676;19;20098;-75
2022/07/04 09:44:04;;;;;;;1.77;0.77;;;23.00;43.60;;;;;;7367366;19;20022;-75
2022/07/04 09:46:45;;;;;;;2.00;0.65;;;23.10;44.30;;;;;;7369493;19;20021;-75
2022/07/04 09:49:14;;;;;;;1.23;0.82;;;23.20;44.00;;;;;;7369863;19;20337;-75
2022/07/04 09:51:46;;;;;;;2.38;0.90;;;23.30;44.40;;;;;;7368083;19;20010;-76
2022/07/04 09:54:39;;;;;;;6.57;1.00;;;23.30;44.50;;;;;;7356680;19;20014;-76
2022/07/04 09:57:13;;;;;;;5.00;1.08;;;23.30;44.90;;;;;;7368046;19;20015;-77
2022/07/04 09:59:45;;;;;;;3.70;1.00;;;23.30;45.70;;;;;;7391369;19;20021;-77
2022/07/04 10:02:21;;;;;;;3.45;1.00;;;23.30;45.50;;;;;;7364536;19;20443;-77
2022/07/04 10:05:04;;;;;;;3.30;1.20;;;23.40;45.20;;;;;;7369851;19;20346;-77
2022/07/04 10:07:57;;;;;;;4.07;1.10;;;23.30;45.40;;;;;;7368094;19;20098;-75
2022/07/04 10:10:44;;;;;;;2.03;0.80;;;23.40;45.00;;;;;;7368058;19;20026;-76
2022/07/04 10:13:17;;;;;;;2.90;0.90;;;23.20;45.20;;;;;;7368000;19;20090;-76
2022/07/04 10:15:58;;;;;;;3.35;1.02;;;23.30;45.40;;;;;;7365049;19;20018;-75
2022/07/04 10:18:34;;;;;;;4.97;1.05;;;23.30;45.40;;;;;;7368136;19;20018;-76
2022/07/04 10:49:09;;;;;;;2.97;0.70;;;23.60;43.40;;;;;;5848525;19;14395993;-76
2022/07/04 10:55:19;;;;;;;2.25;0.90;;;24.10;42.90;;;;;;7430843;19;20010;-76
2022/07/04 10:58:01;;;;;;;2.58;0.90;;;24.00;42.00;;;;;;7394858;19;20461;-76
2022/07/04 11:00:31;;;;;;;2.03;0.90;;;23.80;42.20;;;;;;7396264;19;20533;-76
2022/07/04 11:03:22;;;;;;;1.08;0.70;;;24.00;42.20;;;;;;7421307;19;20031;-77
2022/07/04 11:34:17;;;;;;;1.15;0.60;;;25.00;41.20;;;;;;7404908;19;20014;-77
2022/07/04 11:49:53;;;;;;;3.40;0.98;;;25.10;39.80;;;;;;7399991;19;20030;-77
2022/07/04 12:03:29;;;;;;;2.97;0.70;;;25.10;39.80;;;;;;7370633;19;20029;-76
2022/07/04 12:06:25;;;;;;;1.95;0.70;;;25.10;39.40;;;;;;7368023;19;20014;-76
2022/07/04 12:09:30;;;;;;;1.83;0.70;;;25.00;39.00;;;;;;7368808;19;20086;-76
2022/07/04 12:12:13;;;;;;;1.10;0.70;;;25.10;39.20;;;;;;7370668;19;20014;-76
2022/07/04 12:15:05;;;;;;;1.48;0.82;;;25.30;39.30;;;;;;7371999;19;20022;-76
2022/07/04 12:17:49;;;;;;;3.17;0.85;;;25.30;39.10;;;;;;7364633;19;20501;-76
2022/07/04 12:20:27;;;;;;;4.90;0.90;;;25.30;39.00;;;;;;7363281;19;20016;-76
2022/07/04 12:26:15;;;;;;;3.38;0.98;;;25.50;40.20;;;;;;7367787;19;20362;-77
2022/07/04 12:32:39;;;;;;;3.72;0.90;;;25.60;39.10;;;;;;7369972;19;20011;-78
2022/07/04 12:35:31;;;;;;;4.55;0.80;;;25.60;39.50;;;;;;7370455;19;20540;-77
2022/07/04 12:41:49;;;;;;;4.55;1.13;;;25.40;40.00;;;;;;7361310;19;20011;-77
2022/07/04 12:47:46;;;;;;;1.33;0.70;;;25.60;39.40;;;;;;7344946;19;20007;-77
2022/07/04 12:50:43;;;;;;;4.53;0.82;;;25.60;39.20;;;;;;7368561;19;20015;-76
2022/07/04 12:53:46;;;;;;;1.55;0.90;;;25.60;39.50;;;;;;7369831;19;20010;-76
2022/07/04 12:56:34;;;;;;;2.97;0.93;;;25.40;39.30;;;;;;7367526;19;20010;-76
2022/07/04 12:59:13;;;;;;;2.83;1.00;;;25.50;39.10;;;;;;7346834;19;20018;-76
2022/07/04 13:02:15;;;;;;;1.73;0.77;;;25.50;39.10;;;;;;7314599;19;20035;-77
2022/07/04 13:04:58;;;;;;;4.55;0.95;;;25.70;38.70;;;;;;7391588;19;20074;-77
2022/07/04 13:07:42;;;;;;;4.72;1.00;;;25.60;39.30;;;;;;7370580;19;20456;-78
2022/07/04 13:10:22;;;;;;;4.63;0.80;;;25.70;38.90;;;;;;7391905;19;20028;-74
2022/07/04 13:12:59;;;;;;;2.58;0.80;;;25.70;39.00;;;;;;7369125;19;20094;-78
2022/07/04 13:15:35;;;;;;;3.75;0.90;;;25.80;38.80;;;;;;7361987;19;20029;-75
2022/07/04 15:04:17;;;;;;;3.33;0.70;;;27.70;32.40;;;;;;7337543;19;19991;-78
2022/07/04 15:06:47;;;;;;;3.15;0.93;;;27.60;32.90;;;;;;7367901;19;20010;-78
2022/07/04 15:09:23;;;;;;;2.65;1.20;;;27.70;33.20;;;;;;7363690;19;20357;-80
2022/07/04 15:11:52;;;;;;;2.83;0.70;;;27.80;33.40;;;;;;7364297;19;20572;-77
2022/07/04 15:14:21;;;;;;;1.25;0.70;;;27.70;33.30;;;;;;7342795;19;20045;-78
2022/07/04 15:16:53;;;;;;;2.15;0.80;;;27.90;33.60;;;;;;6985685;19;20014;-79
2022/07/04 15:40:03;;;;;;;3.33;1.15;;;29.80;30.80;;;;;;7373129;19;20022;-79
2022/07/04 15:42:33;;;;;;;1.88;0.65;;;30.70;29.50;;;;;;7373689;19;20018;-79
2022/07/04 15:45:02;;;;;;;1.60;0.80;;;31.00;29.20;;;;;;7374066;19;20086;-79
2022/07/04 15:47:34;;;;;;;3.55;1.27;;;31.80;29.40;;;;;;7367946;19;20103;-79
2022/07/04 15:50:04;;;;;;;4.40;0.57;;;32.60;29.20;;;;;;7370952;19;20006;-78
2022/07/04 15:52:34;;;;;;;1.88;0.70;;;33.00;28.90;;;;;;7371539;19;20060;-80
2022/07/04 15:55:14;;;;;;;3.63;2.38;;;33.40;28.60;;;;;;7389718;19;20021;-79
2022/07/04 15:57:43;;;;;;;5.10;2.08;;;34.10;28.60;;;;;;7371933;19;20090;-78
2022/07/04 16:00:13;;;;;;;3.20;1.10;;;34.80;27.70;;;;;;7370145;19;20010;-79
2022/07/04 16:02:43;;;;;;;2.95;1.00;;;35.20;27.40;;;;;;7371151;19;20018;-79
2022/07/04 16:05:12;;;;;;;0.80;0.77;;;35.70;26.50;;;;;;7371945;19;20458;-78
2022/07/04 16:07:41;;;;;;;1.77;0.70;;;35.80;26.20;;;;;;7371326;19;20287;-77
2022/07/04 16:10:13;;;;;;;3.92;0.70;;;35.80;26.10;;;;;;7392588;19;20043;-78
2022/07/04 16:32:53;;;;;;;3.40;0.70;;;37.20;25.40;;;;;;7367805;19;20010;-78
2022/07/04 16:38:35;;;;;;;2.42;0.73;;;37.90;25.60;;;;;;7366505;19;20018;-85
2022/07/04 16:45:21;;;;;;;;;;;;;;;;;;;;;
2022/07/04 16:51:45;;;;;;;;;;;;;;;;;;;;;
2022/07/04 16:54:14;;;;;;;1.67;0.77;;;38.60;23.80;;;;;;7374406;19;20222;-84
2022/07/04 16:56:54;;;;;;;2.60;0.50;;;38.40;24.40;;;;;;7376731;19;20427;-85
2022/07/04 16:59:22;;;;;;;1.42;0.70;;;38.40;24.40;;;;;;7375216;19;20014;-84
2022/07/04 17:21:52;;;;;;;2.90;1.00;;;40.60;23.00;;;;;;7376439;19;20006;-85
2022/07/04 18:09:28;;;;;;;0.98;0.55;;;41.30;22.30;;;;;;7389386;19;20338;-78
2022/07/04 18:11:58;;;;;;;0.80;0.70;;;41.00;22.30;;;;;;7387384;19;20031;-79
2022/07/04 18:14:27;;;;;;;1.65;0.85;;;40.80;22.50;;;;;;7388940;19;20011;-79
2022/07/04 18:16:56;;;;;;;2.40;0.93;;;40.80;22.40;;;;;;7389149;19;20037;-79
2022/07/04 18:19:25;;;;;;;1.60;0.82;;;40.60;22.40;;;;;;7390481;19;20049;-78
2022/07/04 18:21:54;;;;;;;4.38;0.90;;;40.40;22.80;;;;;;7390590;19;20019;-79
2022/07/04 18:24:25;;;;;;;1.13;0.80;;;40.50;23.00;;;;;;7392837;19;20018;-79
2022/07/04 18:26:55;;;;;;;6.65;0.90;;;40.60;23.00;;;;;;7393352;19;20018;-79
2022/07/04 18:29:24;;;;;;;3.92;1.40;;;40.60;22.90;;;;;;7389199;19;20011;-79
2022/07/04 18:31:53;;;;;;;3.15;1.17;;;40.50;23.00;;;;;;7388824;19;20021;-79
2022/07/04 18:34:25;;;;;;;3.50;1.23;;;40.00;23.50;;;;;;7388821;19;20484;-80
2022/07/04 18:36:54;;;;;;;3.35;1.70;;;39.80;23.80;;;;;;7388918;19;20013;-79
2022/07/04 18:39:26;;;;;;;2.30;1.30;;;39.50;23.70;;;;;;7392631;19;20429;-79
2022/07/04 18:44:37;;;;;;;4.43;2.20;;;38.60;24.30;;;;;;7389829;19;20019;-79
2022/07/04 18:47:06;;;;;;;4.45;2.17;;;38.00;24.90;;;;;;7390235;19;20023;-79
2022/07/04 18:49:37;;;;;;;3.40;1.85;;;37.60;25.40;;;;;;7387158;19;20015;-79
2022/07/04 18:52:06;;;;;;;;;;;37.40;25.70;;;;;;7390532;19;20595;-80
2022/07/04 18:54:37;;;;;;;3.40;2.00;;;37.30;25.70;;;;;;7390362;19;19919;-80
2022/07/04 18:57:08;;;;;;;5.22;2.42;;;37.00;26.10;;;;;;7389974;19;20022;-80
2022/07/04 18:59:37;;;;;;;3.97;2.05;;;36.70;26.40;;;;;;7393302;19;20031;-80
2022/07/04 19:02:06;;;;;;;7.93;2.40;;;36.60;26.80;;;;;;7393843;19;20481;-80
2022/07/04 19:04:35;;;;;;;5.40;2.42;;;36.30;26.80;;;;;;7395509;19;20021;-80
2022/07/04 19:07:04;;;;;;;6.45;2.35;;;35.90;27.20;;;;;;7398564;19;20460;-80
2022/07/04 19:09:33;;;;;;;6.85;2.30;;;35.40;27.60;;;;;;7389468;19;20325;-79
2022/07/04 19:12:05;;;;;;;3.63;2.17;;;35.10;27.90;;;;;;7394115;19;20057;-78
2022/07/04 19:14:34;;;;;;;3.95;2.20;;;34.70;28.20;;;;;;7393083;19;20074;-79
2022/07/04 19:17:02;;;;;;;4.22;2.17;;;34.20;28.60;;;;;;7397011;19;20010;-80
2022/07/04 19:19:31;;;;;;;1.98;1.60;;;33.30;29.40;;;;;;7395548;19;20027;-79
2022/07/04 19:22:00;;;;;;;5.18;2.15;;;32.40;30.20;;;;;;7393500;19;20018;-79
2022/07/04 19:24:29;;;;;;;7.20;2.22;;;31.60;31.50;;;;;;7396623;19;20057;-80
2022/07/04 19:26:58;;;;;;;3.95;1.80;;;31.10;32.40;;;;;;7396640;19;20082;-79
2022/07/04 19:29:30;;;;;;;7.97;1.88;;;30.50;33.40;;;;;;7393421;19;20026;-80
2022/07/04 19:31:59;;;;;;;4.43;1.55;;;29.80;34.40;;;;;;7396374;19;20019;-78
2022/07/04 19:34:28;;;;;;;6.40;1.27;;;29.30;35.30;;;;;;7392112;19;20123;-79
2022/07/04 19:36:57;;;;;;;3.03;1.17;;;28.70;36.20;;;;;;7394523;19;20177;-80
2022/07/04 19:42:39;;;;;;;5.07;1.30;;;28.30;37.40;;;;;;7417570;19;20316;-89
2022/07/04 19:45:11;;;;;;;4.00;1.40;;;27.80;38.40;;;;;;7410548;19;20042;-90
2022/07/04 19:47:40;;;;;;;4.50;1.30;;;27.60;39.00;;;;;;7424903;19;20010;-91
2022/07/04 19:50:10;;;;;;;4.85;1.63;;;27.50;39.90;;;;;;7421245;19;20300;-89
2022/07/04 19:52:39;;;;;;;8.05;1.60;;;27.50;39.70;;;;;;7409555;19;20015;-85
2022/07/04 19:55:13;;;;;;;5.45;0.90;;;27.10;41.10;;;;;;7398326;19;20010;-85
2022/07/04 19:57:45;;;;;;;4.25;1.20;;;26.90;41.90;;;;;;7412143;19;20046;-85